Pagrindinis puslapis
METAR-TAF:

METAR-TAF

Oro uostai :

Juigalpa, Nikaragva

platuma: 12-06N, ilguma: 085-22W, Aukštis: 90 m

Dabartinis oras

Ataskaita buvo paskelbta 6 valandos ir 3 minutes, ne 23:00 UTC
Vėjas 8 kt iš Rytų
Temperatūra 33°C
Drėgmė 53%
Slėgis 1009 hPa
Matomumas 10 km arba daugiau
Su prošvaistėmis ne aukštis 2000 ft, aukštai iškilę kamuoliniai debesys.

METAR: MNJU 242300Z 09008KT 9999 BKN020TCU 33/22 Q1009 TCU E SE W

Laikas: 23:03 (05:03 UTC)


TAF: trūkstamas

Orai ataskaitas ir orų prognozės (METAR, TAF).

turimą stotys yra geltonos ir raudonos taškus žemėlapyje.

Perkelti pele per norėdami pamatyti stoties vardą.

Tada spustelėkite, norėdami matyti oro stebėjimo ir prognozės.

Norėdami pakeisti žemėlapį: spustelėkite ant žalios mygtukų su juodo kryžiaus žemyn,; žalią mygtuką su brūkšneliu, jei norite nutolinti; arba žalių rodyklių gretimoms žemėlapius.


METAR-TAF: